createdAt,value
2023-05-30T00:01:21.005Z,101375.41
2023-05-30T00:03:50.377Z,101386.52
2023-05-30T00:06:19.192Z,101386.07
2023-05-30T00:08:47.557Z,101387.96
2023-05-30T00:11:15.830Z,101390.27
2023-05-30T00:13:44.790Z,101390.84
2023-05-30T00:16:15.680Z,101391.96
2023-05-30T00:18:44.864Z,101396.77
2023-05-30T00:21:13.563Z,101395.56
2023-05-30T00:23:41.949Z,101395.31
2023-05-30T00:26:10.206Z,101396.66
2023-05-30T00:28:40.100Z,101399.64
2023-05-30T00:31:09.094Z,101403.10
2023-05-30T00:33:37.072Z,101405.48
2023-05-30T00:36:05.801Z,101404.41
2023-05-30T00:38:33.814Z,101397.36
2023-05-30T00:41:03.977Z,101396.23
2023-05-30T00:43:32.161Z,101400.67
2023-05-30T00:46:02.189Z,101397.02
2023-05-30T00:48:30.606Z,101390.73
2023-05-30T00:50:59.552Z,101394.21
2023-05-30T00:53:29.705Z,101395.73
2023-05-30T00:56:00.190Z,101396.83
2023-05-30T00:58:28.521Z,101397.14
2023-05-30T01:00:59.267Z,101395.25
2023-05-30T01:03:34.913Z,101392.48
2023-05-30T01:06:05.167Z,101388.70
2023-05-30T01:08:33.866Z,101394.72
2023-05-30T01:11:10.735Z,101395.83
2023-05-30T01:13:52.264Z,101402.64
2023-05-30T01:16:26.880Z,101404.02
2023-05-30T01:19:33.215Z,101405.91
2023-05-30T01:22:14.130Z,101406.84
2023-05-30T01:24:53.596Z,101402.00
2023-05-30T01:27:56.382Z,101405.77
2023-05-30T01:30:27.377Z,101409.12
2023-05-30T01:32:55.674Z,101404.41
2023-05-30T01:35:25.859Z,101401.44
2023-05-30T01:37:54.128Z,101401.36
2023-05-30T01:40:25.683Z,101402.54
2023-05-30T01:43:25.296Z,101400.15
2023-05-30T01:46:09.428Z,101405.20
2023-05-30T01:48:45.706Z,101402.23
2023-05-30T01:51:21.349Z,101406.57
2023-05-30T01:53:57.776Z,101407.52
2023-05-30T01:56:29.303Z,101412.33
2023-05-30T01:58:58.517Z,101412.48
2023-05-30T02:01:30.233Z,101415.89
2023-05-30T02:03:59.121Z,101409.74
2023-05-30T02:06:27.503Z,101413.79
2023-05-30T02:08:55.575Z,101416.17
2023-05-30T02:11:24.078Z,101416.41
2023-05-30T02:13:54.645Z,101416.34
2023-05-30T02:16:22.881Z,101419.36
2023-05-30T02:18:51.783Z,101420.70
2023-05-30T02:21:22.350Z,101423.08
2023-05-30T02:23:51.211Z,101420.13
2023-05-30T02:26:19.548Z,101425.58
2023-05-30T02:28:48.050Z,101423.65
2023-05-30T02:31:17.042Z,101425.42
2023-05-30T02:33:45.827Z,101428.00
2023-05-30T02:36:14.925Z,101429.44
2023-05-30T02:38:43.838Z,101426.68
2023-05-30T02:41:13.019Z,101429.39
2023-05-30T02:43:42.462Z,101429.68
2023-05-30T02:46:10.794Z,101436.10
2023-05-30T02:48:41.427Z,101432.32
2023-05-30T02:51:09.710Z,101433.08
2023-05-30T02:53:38.398Z,101432.61
2023-05-30T02:56:07.493Z,101437.17
2023-05-30T02:59:07.719Z,101440.02
2023-05-30T03:01:55.016Z,101444.36
2023-05-30T03:04:23.827Z,101445.04
2023-05-30T03:06:53.435Z,101447.14
2023-05-30T03:09:24.693Z,101446.83
2023-05-30T03:11:52.910Z,101452.08
2023-05-30T03:14:22.193Z,101453.52
2023-05-30T03:16:50.262Z,101454.38
2023-05-30T03:19:20.251Z,101456.39
2023-05-30T03:21:50.988Z,101457.59
2023-05-30T03:24:20.284Z,101453.52
2023-05-30T03:26:51.471Z,101452.56
2023-05-30T03:29:21.340Z,101452.13
2023-05-30T03:31:50.183Z,101456.89
2023-05-30T03:34:18.608Z,101455.13
2023-05-30T03:36:47.295Z,101455.40
2023-05-30T03:39:15.674Z,101455.48
2023-05-30T03:41:43.952Z,101456.35
2023-05-30T03:44:13.495Z,101459.98
2023-05-30T03:46:41.999Z,101462.07
2023-05-30T03:49:10.521Z,101460.86
2023-05-30T03:51:38.902Z,101461.67
2023-05-30T03:54:09.945Z,101467.13
2023-05-30T03:56:37.869Z,101465.17
2023-05-30T03:59:09.863Z,101469.58
2023-05-30T04:01:39.197Z,101474.05
2023-05-30T04:04:07.384Z,101474.75
2023-05-30T04:06:37.919Z,101471.68
2023-05-30T04:09:07.012Z,101473.05
2023-05-30T04:11:35.461Z,101480.59
2023-05-30T04:14:04.123Z,101478.05
2023-05-30T04:16:32.890Z,101478.89
2023-05-30T04:19:00.913Z,101480.98
2023-05-30T04:21:30.349Z,101481.70
2023-05-30T04:23:58.286Z,101482.32
2023-05-30T04:26:26.688Z,101485.75
2023-05-30T04:28:58.404Z,101483.83
2023-05-30T04:31:27.123Z,101486.67
2023-05-30T04:33:57.343Z,101485.05
2023-05-30T04:36:28.728Z,101486.85
2023-05-30T04:38:57.155Z,101482.41
2023-05-30T04:41:27.898Z,101483.77
2023-05-30T04:43:59.442Z,101486.67
2023-05-30T04:46:30.347Z,101485.23
2023-05-30T04:49:03.151Z,101492.65
2023-05-30T04:51:34.728Z,101498.92
2023-05-30T04:54:03.423Z,101496.54
2023-05-30T04:56:32.098Z,101497.21
2023-05-30T04:59:00.782Z,101498.59
2023-05-30T05:01:29.577Z,101501.04
2023-05-30T05:03:57.790Z,101501.27
2023-05-30T05:06:26.534Z,101499.64
2023-05-30T05:08:54.428Z,101501.90
2023-05-30T05:11:22.827Z,101504.09
2023-05-30T05:13:50.696Z,101507.09
2023-05-30T05:16:18.630Z,101509.39
2023-05-30T05:18:47.202Z,101510.27
2023-05-30T05:21:15.767Z,101515.94
2023-05-30T05:23:44.083Z,101514.77
2023-05-30T05:26:13.053Z,101520.80
2023-05-30T05:28:42.096Z,101521.48
2023-05-30T05:31:09.956Z,101521.98
2023-05-30T05:33:37.884Z,101519.17
2023-05-30T05:36:08.133Z,101523.11
2023-05-30T05:38:36.495Z,101522.96
2023-05-30T05:41:04.411Z,101528.27
2023-05-30T05:43:32.279Z,101529.99
2023-05-30T05:46:00.581Z,101529.16
2023-05-30T05:48:29.003Z,101531.53
2023-05-30T05:50:57.611Z,101528.17
2023-05-30T05:53:26.731Z,101535.95
2023-05-30T05:55:56.162Z,101528.33
2023-05-30T05:58:24.448Z,101533.54
2023-05-30T06:00:52.815Z,101533.80
2023-05-30T06:03:21.257Z,101534.90
2023-05-30T06:05:49.993Z,101535.49
2023-05-30T06:08:17.959Z,101535.92
2023-05-30T06:10:46.638Z,101537.06
2023-05-30T06:13:17.058Z,101540.23
2023-05-30T06:15:44.940Z,101542.98
2023-05-30T06:18:13.694Z,101545.74
2023-05-30T06:20:42.183Z,101551.60
2023-05-30T06:23:10.099Z,101556.41
2023-05-30T06:25:37.925Z,101554.98
2023-05-30T06:28:06.582Z,101557.00
2023-05-30T06:30:34.548Z,101557.92
2023-05-30T06:33:04.546Z,101560.21
2023-05-30T06:35:33.206Z,101561.20
2023-05-30T06:38:01.809Z,101563.41
2023-05-30T06:40:29.717Z,101565.38
2023-05-30T06:42:58.451Z,101565.14
2023-05-30T06:45:26.839Z,101567.86
2023-05-30T06:47:55.517Z,101566.45
2023-05-30T06:50:23.725Z,101569.08
2023-05-30T06:52:53.596Z,101574.73
2023-05-30T06:55:22.388Z,101576.22
2023-05-30T06:57:55.777Z,101575.83
2023-05-30T07:00:23.735Z,101576.36
2023-05-30T07:02:52.025Z,101578.20
2023-05-30T07:05:20.489Z,101581.71
2023-05-30T07:07:48.804Z,101581.46
2023-05-30T07:10:20.410Z,101579.69
2023-05-30T07:12:48.350Z,101579.42
2023-05-30T07:15:17.103Z,101581.19
2023-05-30T07:17:46.054Z,101587.16
2023-05-30T07:20:15.477Z,101581.28
2023-05-30T07:22:43.704Z,101587.23
2023-05-30T07:25:13.073Z,101588.99
2023-05-30T07:27:41.498Z,101588.30
2023-05-30T07:30:10.148Z,101592.60
2023-05-30T07:32:38.469Z,101591.96
2023-05-30T07:35:07.163Z,101589.34
2023-05-30T07:37:38.799Z,101590.16
2023-05-30T07:40:08.615Z,101594.04
2023-05-30T07:42:39.954Z,101597.66
2023-05-30T07:45:08.747Z,101601.77
2023-05-30T07:47:37.183Z,101599.14
2023-05-30T07:50:07.758Z,101595.73
2023-05-30T07:52:37.128Z,101593.78
2023-05-30T07:55:06.145Z,101598.81
2023-05-30T07:57:34.411Z,101593.23
2023-05-30T08:00:02.882Z,101586.31
2023-05-30T08:02:40.083Z,101585.27
2023-05-30T08:05:08.837Z,101588.64
2023-05-30T08:07:37.688Z,101591.98
2023-05-30T08:10:08.497Z,101591.31
2023-05-30T08:12:37.464Z,101581.98
2023-05-30T08:15:08.921Z,101585.64
2023-05-30T08:17:37.227Z,101588.50
2023-05-30T08:20:08.137Z,101590.13
2023-05-30T08:22:37.897Z,101588.73
2023-05-30T08:25:07.163Z,101584.53
2023-05-30T08:27:35.723Z,101584.20
2023-05-30T08:30:04.529Z,101588.67
2023-05-30T08:32:34.754Z,101584.39
2023-05-30T08:35:03.543Z,101585.70
2023-05-30T08:37:31.473Z,101584.45
2023-05-30T08:39:59.688Z,101588.18
2023-05-30T08:42:27.735Z,101583.35
2023-05-30T08:44:55.721Z,101584.23
2023-05-30T08:47:24.942Z,101584.27
2023-05-30T08:49:54.421Z,101590.66
2023-05-30T08:52:29.828Z,101594.05
2023-05-30T08:55:08.787Z,101585.89
2023-05-30T08:57:49.893Z,101590.76
2023-05-30T09:00:19.466Z,101598.97
2023-05-30T09:02:57.445Z,101592.89
2023-05-30T09:05:27.033Z,101590.78
2023-05-30T09:07:58.182Z,101590.00
2023-05-30T09:10:29.789Z,101584.02
2023-05-30T09:13:01.161Z,101582.11
2023-05-30T09:15:29.372Z,101587.36
2023-05-30T09:17:58.104Z,101588.34
2023-05-30T09:20:31.750Z,101584.14
2023-05-30T09:23:03.059Z,101584.27
2023-05-30T09:25:49.800Z,101584.10
2023-05-30T09:28:29.637Z,101587.35
2023-05-30T09:31:02.985Z,101589.77
2023-05-30T09:33:50.679Z,101587.70
2023-05-30T09:36:21.741Z,101592.20
2023-05-30T09:38:57.697Z,101589.92
2023-05-30T09:41:27.826Z,101589.61
2023-05-30T09:43:58.056Z,101592.24
2023-05-30T09:46:31.678Z,101592.58
2023-05-30T09:49:00.388Z,101592.20
2023-05-30T09:51:31.010Z,101587.67
2023-05-30T09:54:05.116Z,101589.28
2023-05-30T09:56:44.055Z,101593.63
2023-05-30T09:59:14.628Z,101593.21
2023-05-30T10:01:44.984Z,101592.95
2023-05-30T10:04:16.520Z,101593.72
2023-05-30T10:06:47.840Z,101596.88
2023-05-30T10:09:17.173Z,101594.61
2023-05-30T10:11:46.106Z,101599.89
2023-05-30T10:14:15.186Z,101596.92
2023-05-30T10:16:50.449Z,101591.70
2023-05-30T10:19:26.277Z,101595.00
2023-05-30T10:22:00.639Z,101592.55
2023-05-30T10:24:30.333Z,101594.99
2023-05-30T10:27:05.678Z,101588.04
2023-05-30T10:29:47.771Z,101594.80
2023-05-30T10:32:25.599Z,101592.89
2023-05-30T10:35:00.441Z,101588.52
2023-05-30T10:37:29.033Z,101578.76
2023-05-30T10:40:26.635Z,101576.09
2023-05-30T10:43:06.798Z,101580.70
2023-05-30T10:46:05.684Z,101585.33
2023-05-30T10:48:48.825Z,101581.13
2023-05-30T10:51:17.877Z,101584.59
2023-05-30T10:53:49.418Z,101577.65
2023-05-30T10:56:41.839Z,101578.77
2023-05-30T10:59:19.745Z,101575.80
2023-05-30T11:02:02.756Z,101568.48
2023-05-30T11:04:46.380Z,101566.85
2023-05-30T11:07:15.540Z,101572.95
2023-05-30T11:10:02.546Z,101562.50
2023-05-30T11:12:31.485Z,101564.88
2023-05-30T11:15:01.627Z,101565.52
2023-05-30T11:17:36.012Z,101572.91
2023-05-30T11:20:18.641Z,101575.00
2023-05-30T11:23:02.360Z,101572.32
2023-05-30T11:25:33.869Z,101568.45
2023-05-30T11:28:04.741Z,101565.65
2023-05-30T11:30:39.440Z,101559.73
2023-05-30T11:33:12.143Z,101555.21
2023-05-30T11:35:43.750Z,101550.77
2023-05-30T11:38:20.963Z,101552.03
2023-05-30T11:40:52.561Z,101550.61
2023-05-30T11:43:21.573Z,101552.09
2023-05-30T11:45:57.991Z,101546.80
2023-05-30T11:48:26.344Z,101545.67
2023-05-30T11:50:56.891Z,101550.13
2023-05-30T11:53:26.407Z,101540.75
2023-05-30T11:55:54.839Z,101537.10
2023-05-30T11:58:23.746Z,101544.80
2023-05-30T12:00:53.402Z,101544.15
2023-05-30T12:03:25.474Z,101544.86
2023-05-30T12:05:53.836Z,101542.43
2023-05-30T12:08:22.821Z,101540.95
2023-05-30T12:10:51.863Z,101539.45
2023-05-30T12:13:20.803Z,101544.64
2023-05-30T12:15:51.132Z,101547.37
2023-05-30T12:18:21.492Z,101545.52
2023-05-30T12:20:52.697Z,101542.11
2023-05-30T12:23:26.875Z,101545.13
2023-05-30T12:25:56.848Z,101542.64
2023-05-30T12:28:25.485Z,101545.37
2023-05-30T12:30:55.159Z,101549.67
2023-05-30T12:33:25.065Z,101548.33
2023-05-30T12:35:57.650Z,101552.66
2023-05-30T12:38:25.723Z,101553.26
2023-05-30T12:40:54.021Z,101550.78
2023-05-30T12:43:29.718Z,101547.63
2023-05-30T12:46:11.475Z,101548.40
2023-05-30T12:48:39.849Z,101542.85
2023-05-30T12:51:08.678Z,101538.00
2023-05-30T12:53:36.891Z,101543.95
2023-05-30T12:56:05.394Z,101547.83
2023-05-30T12:58:34.181Z,101546.23
2023-05-30T13:01:02.830Z,101538.86
2023-05-30T13:03:32.981Z,101536.05
2023-05-30T13:06:01.371Z,101535.45
2023-05-30T13:08:30.465Z,101533.14
2023-05-30T13:10:59.844Z,101538.42
2023-05-30T13:13:31.641Z,101541.05
2023-05-30T13:15:59.699Z,101539.77
2023-05-30T13:18:28.209Z,101545.06
2023-05-30T13:20:57.572Z,101542.62
2023-05-30T13:23:25.912Z,101539.98
2023-05-30T13:25:54.547Z,101536.07
2023-05-30T13:28:22.856Z,101533.96
2023-05-30T13:30:51.809Z,101538.58
2023-05-30T13:33:20.838Z,101535.14
2023-05-30T13:35:48.878Z,101535.59
2023-05-30T13:38:17.079Z,101542.87
2023-05-30T13:40:44.937Z,101541.48
2023-05-30T13:43:13.807Z,101543.42
2023-05-30T13:45:42.969Z,101539.25
2023-05-30T13:48:11.907Z,101535.52
2023-05-30T13:50:39.883Z,101533.85
2023-05-30T13:53:08.585Z,101532.52
2023-05-30T13:55:37.301Z,101529.91
2023-05-30T13:58:08.338Z,101527.10
2023-05-30T14:00:36.915Z,101534.33
2023-05-30T14:03:06.090Z,101539.73
2023-05-30T14:05:36.461Z,101537.98
2023-05-30T14:08:05.410Z,101532.86
2023-05-30T14:10:33.340Z,101534.59
2023-05-30T14:13:02.210Z,101537.64
2023-05-30T14:15:32.369Z,101537.59
2023-05-30T14:18:00.904Z,101544.35
2023-05-30T14:20:28.935Z,101537.84
2023-05-30T14:22:57.620Z,101536.31
2023-05-30T14:25:25.556Z,101546.81
2023-05-30T14:27:54.093Z,101543.86
2023-05-30T14:30:22.335Z,101547.30
2023-05-30T14:32:51.269Z,101541.81
2023-05-30T14:35:20.131Z,101544.73
2023-05-30T14:37:48.178Z,101544.86
2023-05-30T14:40:16.874Z,101542.88
2023-05-30T14:42:45.255Z,101544.19
2023-05-30T14:45:13.252Z,101537.23
2023-05-30T14:47:41.230Z,101542.64
2023-05-30T14:50:11.207Z,101535.61
2023-05-30T14:52:39.204Z,101534.88
2023-05-30T14:55:08.409Z,101536.48
2023-05-30T14:57:36.835Z,101526.20
2023-05-30T15:00:06.794Z,101524.89
2023-05-30T15:02:35.468Z,101527.86
2023-05-30T15:05:04.301Z,101528.70
2023-05-30T15:07:32.948Z,101527.30
2023-05-30T15:10:01.638Z,101530.66
2023-05-30T15:12:30.444Z,101532.23
2023-05-30T15:14:59.003Z,101528.34
2023-05-30T15:17:27.720Z,101531.11
2023-05-30T15:19:56.417Z,101529.19
2023-05-30T15:22:24.468Z,101524.33
2023-05-30T15:24:52.446Z,101528.46
2023-05-30T15:27:21.048Z,101527.06
2023-05-30T15:29:48.990Z,101529.88
2023-05-30T15:32:17.466Z,101528.14
2023-05-30T15:34:46.288Z,101538.32
2023-05-30T15:37:14.523Z,101531.33
2023-05-30T15:39:42.723Z,101534.02
2023-05-30T15:42:11.096Z,101528.65
2023-05-30T15:44:39.049Z,101531.85
2023-05-30T15:47:09.425Z,101530.84
2023-05-30T15:49:37.754Z,101529.66
2023-05-30T15:52:06.650Z,101530.06
2023-05-30T15:54:34.642Z,101532.90
2023-05-30T15:57:03.889Z,101536.36
2023-05-30T15:59:32.311Z,101535.02
2023-05-30T16:02:02.321Z,101536.05
2023-05-30T16:04:30.801Z,101535.05
2023-05-30T16:06:59.180Z,101534.15
2023-05-30T16:09:27.453Z,101542.91
2023-05-30T16:11:55.424Z,101542.64
2023-05-30T16:14:26.180Z,101543.23
2023-05-30T16:16:54.500Z,101539.78
2023-05-30T16:19:23.123Z,101537.73
2023-05-30T16:21:51.392Z,101541.63
2023-05-30T16:24:20.597Z,101541.05
2023-05-30T16:26:48.970Z,101540.27
2023-05-30T16:29:17.139Z,101538.55
2023-05-30T16:31:45.361Z,101541.05
2023-05-30T16:34:13.399Z,101542.65
2023-05-30T16:36:44.041Z,101543.62
2023-05-30T16:39:13.856Z,101543.06
2023-05-30T16:41:42.301Z,101547.21
2023-05-30T16:44:11.528Z,101546.92
2023-05-30T16:46:42.047Z,101544.96
2023-05-30T16:49:12.161Z,101546.92
2023-05-30T16:51:41.492Z,101542.76
2023-05-30T16:54:11.685Z,101542.90
2023-05-30T16:56:39.925Z,101547.95
2023-05-30T16:59:08.495Z,101548.59
2023-05-30T17:01:36.872Z,101552.52
2023-05-30T17:04:05.203Z,101550.79
2023-05-30T17:06:34.510Z,101553.09
2023-05-30T17:09:02.387Z,101553.71
2023-05-30T17:11:30.576Z,101547.81
2023-05-30T17:13:58.982Z,101552.84
2023-05-30T17:16:27.245Z,101556.83
2023-05-30T17:18:55.939Z,101558.92
2023-05-30T17:21:24.684Z,101565.11
2023-05-30T17:23:55.008Z,101565.48
2023-05-30T17:26:24.611Z,101564.55
2023-05-30T17:28:53.325Z,101565.21
2023-05-30T17:31:21.628Z,101564.75
2023-05-30T17:33:52.026Z,101567.30
2023-05-30T17:36:19.920Z,101562.98
2023-05-30T17:38:48.566Z,101564.16
2023-05-30T17:41:18.888Z,101563.36
2023-05-30T17:43:47.180Z,101565.88
2023-05-30T17:46:15.894Z,101560.57
2023-05-30T17:48:43.967Z,101560.46
2023-05-30T17:51:12.327Z,101561.43
2023-05-30T17:53:51.181Z,101556.60
2023-05-30T17:56:25.024Z,101555.94
2023-05-30T17:58:53.363Z,101556.80
2023-05-30T18:01:22.241Z,101558.97
2023-05-30T18:03:50.619Z,101560.95
2023-05-30T18:06:27.057Z,101565.15
2023-05-30T18:08:56.969Z,101565.46
2023-05-30T18:11:25.547Z,101569.42
2023-05-30T18:13:54.266Z,101573.40
2023-05-30T18:16:23.786Z,101570.68
2023-05-30T18:18:53.637Z,101573.61
2023-05-30T18:21:22.860Z,101571.40
2023-05-30T18:23:51.744Z,101570.70
2023-05-30T18:26:21.429Z,101571.19
2023-05-30T18:28:50.557Z,101578.64
2023-05-30T18:31:19.155Z,101578.80
2023-05-30T18:33:47.195Z,101580.98
2023-05-30T18:36:16.410Z,101582.74
2023-05-30T18:38:47.675Z,101582.32
2023-05-30T18:41:17.673Z,101583.59
2023-05-30T18:43:48.498Z,101586.59
2023-05-30T18:46:18.010Z,101591.95
2023-05-30T18:48:48.491Z,101593.52
2023-05-30T18:51:19.955Z,101596.17
2023-05-30T18:53:48.242Z,101595.77
2023-05-30T18:56:17.978Z,101598.64
2023-05-30T18:58:46.254Z,101597.20
2023-05-30T19:01:16.075Z,101603.48
2023-05-30T19:03:45.328Z,101607.79
2023-05-30T19:06:14.714Z,101609.34
2023-05-30T19:08:47.775Z,101612.99
2023-05-30T19:11:19.521Z,101613.98
2023-05-30T19:13:48.724Z,101616.81
2023-05-30T19:16:19.888Z,101617.51
2023-05-30T19:18:49.471Z,101616.33
2023-05-30T19:21:18.046Z,101623.33
2023-05-30T19:23:46.438Z,101626.82
2023-05-30T19:26:17.071Z,101628.92
2023-05-30T19:28:47.604Z,101628.94
2023-05-30T19:31:18.032Z,101634.70
2023-05-30T19:33:48.772Z,101638.80
2023-05-30T19:36:18.706Z,101639.09
2023-05-30T19:38:47.880Z,101638.20
2023-05-30T19:41:18.564Z,101639.93
2023-05-30T19:43:48.710Z,101642.20
2023-05-30T19:46:17.408Z,101636.55
2023-05-30T19:48:45.818Z,101638.42
2023-05-30T19:51:16.628Z,101638.16
2023-05-30T19:53:44.633Z,101638.95
2023-05-30T19:56:14.500Z,101638.98
2023-05-30T19:58:43.204Z,101642.32
2023-05-30T20:01:11.248Z,101644.37
2023-05-30T20:03:43.838Z,101645.42
2023-05-30T20:06:16.040Z,101644.46
2023-05-30T20:08:43.995Z,101643.33
2023-05-30T20:11:12.994Z,101643.91
2023-05-30T20:13:41.748Z,101649.14
2023-05-30T20:16:13.683Z,101650.60
2023-05-30T20:18:49.931Z,101650.97
2023-05-30T20:21:20.062Z,101653.39
2023-05-30T20:23:48.503Z,101651.66
2023-05-30T20:26:16.542Z,101655.85
2023-05-30T20:28:44.852Z,101650.61
2023-05-30T20:31:13.643Z,101648.14
2023-05-30T20:33:41.921Z,101650.48
2023-05-30T20:36:12.077Z,101647.73
2023-05-30T20:38:40.216Z,101655.36
2023-05-30T20:41:08.394Z,101655.09
2023-05-30T20:43:37.223Z,101660.13
2023-05-30T20:46:05.458Z,101661.77
2023-05-30T20:48:33.734Z,101665.38
2023-05-30T20:51:02.239Z,101666.00
2023-05-30T20:53:30.625Z,101670.66
2023-05-30T20:55:58.867Z,101672.14
2023-05-30T20:58:27.753Z,101676.31
2023-05-30T21:00:56.024Z,101675.87
2023-05-30T21:03:25.392Z,101678.91
2023-05-30T21:05:53.529Z,101681.02
2023-05-30T21:08:22.190Z,101683.30
2023-05-30T21:10:50.033Z,101684.70
2023-05-30T21:13:18.845Z,101683.77
2023-05-30T21:15:47.230Z,101685.27
2023-05-30T21:18:15.140Z,101689.35
2023-05-30T21:20:44.195Z,101690.45
2023-05-30T21:23:12.464Z,101689.66
2023-05-30T21:25:41.566Z,101686.41
2023-05-30T21:28:09.462Z,101689.41
2023-05-30T21:30:38.101Z,101688.04
2023-05-30T21:33:06.621Z,101686.47
2023-05-30T21:35:34.914Z,101690.69
2023-05-30T21:38:03.154Z,101693.25
2023-05-30T21:40:31.024Z,101690.34
2023-05-30T21:42:59.603Z,101693.81
2023-05-30T21:45:28.154Z,101699.20
2023-05-30T21:47:57.149Z,101702.48
2023-05-30T21:50:25.035Z,101703.92
2023-05-30T21:52:52.949Z,101708.95
2023-05-30T21:55:21.602Z,101716.95
2023-05-30T21:57:50.286Z,101719.52
2023-05-30T22:00:19.466Z,101717.27
2023-05-30T22:02:48.121Z,101716.02
2023-05-30T22:05:17.113Z,101723.30
2023-05-30T22:07:45.569Z,101722.73
2023-05-30T22:10:13.905Z,101724.17
2023-05-30T22:12:41.759Z,101727.08
2023-05-30T22:15:10.693Z,101727.30
2023-05-30T22:17:40.318Z,101726.56
2023-05-30T22:20:09.700Z,101727.86
2023-05-30T22:22:38.393Z,101729.48
2023-05-30T22:25:07.381Z,101731.42
2023-05-30T22:27:35.561Z,101737.13
2023-05-30T22:30:04.260Z,101741.19
2023-05-30T22:32:33.894Z,101741.85
2023-05-30T22:35:03.000Z,101747.28
2023-05-30T22:37:31.038Z,101745.98
2023-05-30T22:39:59.562Z,101749.12
2023-05-30T22:42:27.779Z,101752.09
2023-05-30T22:44:56.158Z,101755.71
2023-05-30T22:47:24.079Z,101752.38
2023-05-30T22:49:52.211Z,101756.46
2023-05-30T22:52:20.480Z,101757.62
2023-05-30T22:54:48.755Z,101760.48
2023-05-30T22:57:17.033Z,101760.80
2023-05-30T22:59:44.970Z,101763.58
2023-05-30T23:02:13.646Z,101760.56
2023-05-30T23:04:42.268Z,101759.40
2023-05-30T23:07:11.085Z,101757.35
2023-05-30T23:09:39.252Z,101759.45
2023-05-30T23:12:08.576Z,101762.53
2023-05-30T23:14:37.057Z,101762.28
2023-05-30T23:17:06.181Z,101765.41
2023-05-30T23:19:34.359Z,101768.02
2023-05-30T23:22:02.568Z,101769.15
2023-05-30T23:24:30.406Z,101771.30
2023-05-30T23:26:58.612Z,101763.08
2023-05-30T23:29:27.009Z,101769.65
2023-05-30T23:31:55.679Z,101774.92
2023-05-30T23:34:23.514Z,101775.95
2023-05-30T23:36:51.631Z,101779.21
2023-05-30T23:39:19.606Z,101773.73
2023-05-30T23:41:47.814Z,101773.56
2023-05-30T23:44:16.544Z,101775.53
2023-05-30T23:46:44.814Z,101776.34
2023-05-30T23:49:16.808Z,101782.20
2023-05-30T23:51:48.270Z,101782.60
2023-05-30T23:54:16.744Z,101783.36
2023-05-30T23:56:45.000Z,101777.23
2023-05-30T23:59:13.199Z,101775.63
